Time;durP1;ratioP1;P1;durP2;ratioP2;P2;SDS_P1;SDS_P2;PMS_P1;PMS_P2;Temp;Humidity;BMP_temperature;BMP_pressure;BME280_temperature;BME280_humidity;BME280_pressure;Samples;Min_cycle;Max_cycle;Signal;HPM_P1;HPM_P2
2021/08/06 00:02:24;;;;;;;2.13;2.03;;;;;;;13.85;99.93;97346.52;261966;1091;23367;-78
2021/08/06 00:07:59;;;;;;;2.35;2.20;;;;;;;13.83;99.84;97346.87;262069;1090;22815;-78
2021/08/06 00:13:36;;;;;;;2.57;2.37;;;;;;;13.82;100.00;97353.40;262081;1090;22845;-79
2021/08/06 00:19:28;;;;;;;2.88;2.68;;;;;;;13.81;99.99;97356.44;262369;1090;25860;-78
2021/08/06 00:25:41;;;;;;;3.00;2.80;;;;;;;13.77;100.00;97356.33;262806;1090;24481;-78
2021/08/06 00:31:51;;;;;;;3.00;2.80;;;;;;;13.77;100.00;97369.78;262379;1090;22819;-78
2021/08/06 00:37:07;;;;;;;2.73;2.53;;;;;;;13.77;100.00;97360.94;262818;1090;22874;-78
2021/08/06 00:43:38;;;;;;;;;;;;;;;;;;;;;
2021/08/06 00:48:47;;;;;;;2.80;2.60;;;;;;;13.74;99.95;97361.60;262764;1093;22941;-80
2021/08/06 00:54:25;;;;;;;2.43;2.33;;;;;;;13.72;100.00;97366.56;262468;1092;27664;-79
2021/08/06 01:14:13;;;;;;;;;;;;;;;;;;;;;
2021/08/06 01:20:15;;;;;;;2.50;2.30;;;;;;;13.58;100.00;97373.10;262459;1096;22899;-79
2021/08/06 01:26:19;;;;;;;2.50;2.40;;;;;;;13.55;100.00;97364.95;262183;1092;22831;-79
2021/08/06 01:31:51;;;;;;;2.95;2.75;;;;;;;13.52;100.00;97372.56;262806;1093;24304;-79
2021/08/06 01:37:05;;;;;;;2.33;2.17;;;;;;;13.51;100.00;97365.64;262585;1093;23579;-79
2021/08/06 01:43:29;;;;;;;;;;;;;;;;;;;;;
2021/08/06 01:49:31;;;;;;;;;;;;;;;;;;;;;
2021/08/06 01:54:44;;;;;;;2.60;2.40;;;;;;;13.48;100.00;97376.28;263539;1090;22849;-79
2021/08/06 02:00:01;;;;;;;3.20;3.00;;;;;;;13.48;100.00;97374.38;264260;1088;22878;-80
2021/08/06 02:05:48;;;;;;;3.10;2.80;;;;;;;13.48;100.00;97384.36;263004;1092;22837;-79
2021/08/06 02:12:02;;;;;;;2.95;2.70;;;;;;;13.46;100.00;97383.93;263094;1093;26322;-79
2021/08/06 02:17:50;;;;;;;3.40;3.10;;;;;;;13.46;100.00;97390.08;263255;1093;22916;-79
2021/08/06 02:23:46;;;;;;;3.10;2.80;;;;;;;13.47;100.00;97382.78;264031;1093;22749;-79
2021/08/06 02:29:23;;;;;;;3.15;2.90;;;;;;;13.48;100.00;97376.28;263883;1093;22858;-79
2021/08/06 02:34:55;;;;;;;;;;;;;;;;;;;;;
2021/08/06 02:40:48;;;;;;;3.20;2.90;;;;;;;13.46;100.00;97373.94;263561;1090;23007;-79
2021/08/06 02:46:35;;;;;;;3.40;3.20;;;;;;;13.48;100.00;97374.38;264399;1090;25765;-80
2021/08/06 02:52:55;;;;;;;4.33;4.03;;;;;;;13.50;100.00;97385.59;263227;1090;23062;-79
2021/08/06 02:59:40;;;;;;;;;;;;;;;;;;;;;
2021/08/06 05:55:35;;;;;;;20.93;18.73;;;;;;;13.75;100.00;97468.91;265036;1092;22855;-78
2021/08/06 06:00:55;;;;;;;23.43;20.93;;;;;;;13.98;100.00;97471.09;265497;1092;22663;-79
2021/08/06 06:06:07;;;;;;;22.15;19.85;;;;;;;14.27;100.00;97477.24;265738;1093;22804;-81
2021/08/06 06:11:11;;;;;;;22.37;20.13;;;;;;;14.52;100.00;97494.06;265524;1093;22724;-78
2021/08/06 06:16:16;;;;;;;22.07;19.87;;;;;;;14.65;100.00;97494.83;265125;1092;22820;-82
2021/08/06 06:21:20;;;;;;;22.75;20.45;;;;;;;14.70;100.00;97508.83;266037;1088;22945;-81
2021/08/06 06:26:37;;;;;;;18.50;16.55;;;;;;;14.69;99.64;97509.18;266083;1090;23029;-80
2021/08/06 06:31:42;;;;;;;15.95;14.35;;;;;;;14.70;99.48;97508.83;266201;1089;23305;-80
2021/08/06 06:36:46;;;;;;;16.85;15.25;;;;;;;14.81;99.49;97513.70;266077;1089;23473;-81
2021/08/06 06:41:59;;;;;;;18.55;16.40;;;;;;;14.90;99.36;97511.63;266040;1089;22798;-81
2021/08/06 06:47:08;;;;;;;20.77;18.57;;;;;;;15.12;99.48;97518.30;266013;1090;22627;-81
2021/08/06 06:52:11;;;;;;;20.80;18.70;;;;;;;15.41;99.34;97513.58;265877;1091;22872;-81
2021/08/06 06:57:15;;;;;;;20.10;18.17;;;;;;;15.69;98.77;97513.42;266289;1091;23378;-81
2021/08/06 07:02:25;;;;;;;20.83;18.73;;;;;;;15.83;97.63;97520.31;266983;1089;22813;-81
2021/08/06 07:07:35;;;;;;;17.33;15.60;;;;;;;15.86;97.10;97530.39;269642;1088;22575;-78
2021/08/06 07:12:41;;;;;;;19.00;17.00;;;;;;;16.02;97.37;97525.73;269674;1089;22571;-82
2021/08/06 07:17:47;;;;;;;14.95;13.45;;;;;;;16.27;96.87;97532.76;269735;1089;22595;-81
2021/08/06 07:22:56;;;;;;;16.00;14.40;;;;;;;16.46;96.54;97537.38;269548;1088;23077;-83
2021/08/06 07:28:00;;;;;;;15.33;13.77;;;;;;;16.64;94.98;97533.08;269542;1089;23027;-82
2021/08/06 07:33:04;;;;;;;15.10;13.53;;;;;;;16.47;94.25;97530.84;269766;1089;22744;-81
2021/08/06 07:38:08;;;;;;;14.55;13.15;;;;;;;16.48;94.14;97543.20;269695;1089;22690;-81
2021/08/06 07:43:13;;;;;;;13.05;11.85;;;;;;;16.78;94.61;97543.38;267554;1089;22754;-81
2021/08/06 07:48:17;;;;;;;15.70;14.15;;;;;;;17.18;94.92;97554.88;269499;1089;22571;-82
2021/08/06 07:53:23;;;;;;;11.40;10.30;;;;;;;17.40;93.12;97558.72;269544;1088;22553;-82
2021/08/06 07:58:47;;;;;;;14.20;12.90;;;;;;;17.18;91.30;97568.41;269559;1090;22636;-81
2021/08/06 08:04:12;;;;;;;16.05;14.50;;;;;;;16.75;91.36;97563.02;269587;1089;22528;-81
2021/08/06 08:09:15;;;;;;;10.05;9.15;;;;;;;16.65;91.79;97564.39;269583;1088;22594;-82
2021/08/06 08:14:19;;;;;;;11.80;10.65;;;;;;;16.75;91.76;97574.61;269806;1089;22556;-82
2021/08/06 08:19:23;;;;;;;14.10;12.70;;;;;;;16.85;91.87;97564.36;269634;1089;22560;-82
2021/08/06 08:24:32;;;;;;;9.50;8.60;;;;;;;17.03;91.71;97562.00;269717;1089;23016;-82
2021/08/06 08:29:39;;;;;;;12.83;11.60;;;;;;;17.54;92.08;97561.63;269683;1088;23592;-82
2021/08/06 08:34:56;;;;;;;11.70;10.70;;;;;;;17.77;89.96;97563.53;269606;1088;23719;-82
2021/08/06 08:40:00;;;;;;;14.00;12.80;;;;;;;17.49;88.61;97564.67;269546;1089;22572;-82
2021/08/06 08:45:07;;;;;;;14.70;13.20;;;;;;;17.37;89.36;97568.34;269479;1088;22662;-83
2021/08/06 08:50:12;;;;;;;14.25;12.75;;;;;;;17.51;89.80;97562.36;269538;1089;22594;-82
2021/08/06 08:55:17;;;;;;;14.55;13.25;;;;;;;17.60;89.53;97557.48;269567;1088;22694;-83
2021/08/06 09:00:22;;;;;;;12.90;11.70;;;;;;;17.83;89.03;97569.41;269368;1088;22948;-82
2021/08/06 09:05:28;;;;;;;7.70;7.00;;;;;;;18.01;88.38;97565.03;267117;1089;22787;-83
2021/08/06 09:10:43;;;;;;;8.05;7.25;;;;;;;18.09;87.47;97569.41;266014;1090;22771;-82
2021/08/06 09:16:15;;;;;;;7.80;5.40;;;;;;;17.87;85.86;97579.14;266278;1089;22788;-83
2021/08/06 09:21:23;;;;;;;7.35;6.70;;;;;;;17.59;85.51;97584.92;266323;1089;24321;-83
2021/08/06 09:26:32;;;;;;;10.80;9.70;;;;;;;17.55;86.19;97595.69;265964;1088;22673;-81
2021/08/06 09:31:51;;;;;;;10.85;9.80;;;;;;;17.62;86.91;97593.09;265642;1089;22947;-82
2021/08/06 09:36:58;;;;;;;11.05;10.05;;;;;;;17.84;86.27;97596.13;265475;1090;25771;-82
2021/08/06 09:42:03;;;;;;;11.85;10.65;;;;;;;18.16;86.33;97598.53;265317;1090;23841;-83
2021/08/06 09:47:21;;;;;;;13.00;11.50;;;;;;;18.25;85.56;97593.59;265368;1088;22914;-84
2021/08/06 09:52:39;;;;;;;14.30;12.85;;;;;;;18.17;85.44;97607.43;265554;1089;22790;-84
2021/08/06 09:57:54;;;;;;;13.65;12.33;;;;;;;18.22;85.45;97607.89;265410;1090;22867;-84
2021/08/06 10:02:58;;;;;;;11.85;10.70;;;;;;;18.23;84.65;97606.75;264977;1090;22702;-84
2021/08/06 10:08:02;;;;;;;6.75;6.15;;;;;;;18.29;84.73;97607.98;265375;1089;25796;-84
2021/08/06 10:13:06;;;;;;;4.80;4.40;;;;;;;18.40;83.85;97604.64;265219;1089;25970;-85
2021/08/06 10:18:12;;;;;;;6.25;5.65;;;;;;;18.51;83.05;97618.30;265143;1089;22875;-85
2021/08/06 10:23:16;;;;;;;5.20;4.80;;;;;;;18.65;82.31;97615.78;265203;1089;22806;-85
2021/08/06 10:28:26;;;;;;;3.30;3.00;;;;;;;18.71;81.02;97618.94;265252;1089;22649;-86
2021/08/06 10:34:10;;;;;;;4.45;3.55;;;;;;;18.45;78.98;97615.14;265140;1089;22805;-86
2021/08/06 10:39:34;;;;;;;4.10;3.80;;;;;;;18.15;79.40;97626.00;265033;1089;23486;-85
2021/08/06 10:44:58;;;;;;;4.30;4.00;;;;;;;17.84;79.73;97625.13;264912;1090;23424;-85
2021/08/06 10:50:36;;;;;;;7.95;2.70;;;;;;;17.58;79.68;97640.22;265287;1089;22652;-86
2021/08/06 10:56:15;;;;;;;4.10;3.70;;;;;;;17.54;80.21;97645.56;265535;1089;22870;-85
2021/08/06 11:01:49;;;;;;;5.40;4.90;;;;;;;17.94;80.84;97644.28;265886;1089;27039;-84
2021/08/06 11:07:33;;;;;;;3.40;3.10;;;;;;;18.34;79.89;97649.47;265738;1089;22800;-83
2021/08/06 11:12:40;;;;;;;2.55;2.35;;;;;;;18.42;78.13;97651.90;265737;1089;25554;-85
2021/08/06 11:17:58;;;;;;;3.85;3.55;;;;;;;18.37;77.88;97648.73;265357;1089;22780;-79
2021/08/06 11:23:16;;;;;;;3.35;3.00;;;;;;;18.28;77.48;97652.49;264077;1088;22867;-80
2021/08/06 11:28:26;;;;;;;1.90;1.80;;;;;;;18.44;77.00;97651.56;264716;1089;23632;-81
2021/08/06 11:33:29;;;;;;;4.23;3.30;;;;;;;18.72;76.08;97653.83;264580;1089;22861;-80
2021/08/06 11:38:33;;;;;;;1.55;1.45;;;;;;;18.87;75.18;97648.56;264475;1090;24155;-81
2021/08/06 11:43:57;;;;;;;1.75;1.65;;;;;;;19.05;73.73;97659.64;265872;1088;23689;-81
2021/08/06 11:49:01;;;;;;;1.53;1.43;;;;;;;19.37;73.00;97664.61;265834;1088;23517;-81
2021/08/06 11:54:09;;;;;;;1.67;1.40;;;;;;;19.66;72.32;97649.34;266582;1089;22758;-84
2021/08/06 11:59:12;;;;;;;2.70;1.95;;;;;;;20.00;72.85;97663.58;266098;1089;22622;-83
2021/08/06 12:04:29;;;;;;;2.23;1.70;;;;;;;19.82;70.96;97668.11;266167;1089;23740;-84
2021/08/06 12:09:33;;;;;;;5.83;1.53;;;;;;;19.41;69.28;97682.49;265614;1090;22764;-83
2021/08/06 12:14:36;;;;;;;1.47;1.37;;;;;;;19.30;69.46;97670.75;265563;1088;22800;-83
2021/08/06 12:19:47;;;;;;;1.80;1.50;;;;;;;19.48;69.80;97685.27;265658;1089;24402;-84
2021/08/06 12:24:53;;;;;;;2.25;1.95;;;;;;;19.37;70.05;97686.34;265196;1089;25845;-84
2021/08/06 12:29:56;;;;;;;1.60;1.50;;;;;;;19.23;68.61;97690.45;265314;1088;23414;-85
2021/08/06 12:35:00;;;;;;;1.90;1.50;;;;;;;19.12;67.85;97692.28;265474;1089;23046;-84
2021/08/06 12:40:04;;;;;;;1.40;1.30;;;;;;;19.23;68.20;97697.83;265242;1090;22789;-84
2021/08/06 12:45:11;;;;;;;1.10;1.10;;;;;;;19.53;68.28;97695.03;265540;1089;23320;-84
2021/08/06 12:50:21;;;;;;;1.40;1.30;;;;;;;19.70;67.53;97693.63;265560;1089;22825;-85
2021/08/06 12:55:39;;;;;;;1.27;1.13;;;;;;;19.71;65.68;97694.39;265464;1090;22597;-84
2021/08/06 13:01:02;;;;;;;1.40;1.30;;;;;;;19.80;65.14;97684.03;264914;1090;22799;-84
2021/08/06 13:06:07;;;;;;;0.97;0.90;;;;;;;20.15;64.28;97690.88;264816;1089;22931;-84
2021/08/06 13:11:15;;;;;;;2.07;1.33;;;;;;;20.46;64.17;97694.94;265180;1089;25899;-84
2021/08/06 13:16:22;;;;;;;;;;;;;;;20.52;63.11;97703.52;265035;1089;22808;-83
2021/08/06 13:21:26;;;;;;;1.80;1.10;;;;;;;20.34;59.79;97715.09;265828;1088;22005;-84
2021/08/06 13:26:29;;;;;;;1.30;1.07;;;;;;;20.12;59.55;97718.83;265647;1089;26281;-84
2021/08/06 13:31:40;;;;;;;1.23;1.13;;;;;;;19.90;60.62;97704.29;265373;1089;22943;-84
2021/08/06 13:36:43;;;;;;;1.40;1.30;;;;;;;19.85;60.58;97701.91;265359;1088;25890;-83
2021/08/06 13:41:47;;;;;;;1.33;1.23;;;;;;;19.80;60.61;97709.25;265213;1089;22791;-84
2021/08/06 13:46:50;;;;;;;1.70;1.40;;;;;;;19.85;61.70;97716.27;265297;1089;25806;-84
2021/08/06 13:51:54;;;;;;;1.00;1.00;;;;;;;20.05;61.20;97719.55;265641;1089;22789;-85
2021/08/06 13:56:57;;;;;;;2.87;1.40;;;;;;;20.15;60.21;97734.38;265295;1089;24472;-85
2021/08/06 14:02:01;;;;;;;1.40;1.30;;;;;;;20.05;59.75;97735.86;266622;1089;25957;-85
2021/08/06 14:07:07;;;;;;;2.67;1.30;;;;;;;20.02;60.12;97731.19;266084;1090;24989;-85
2021/08/06 14:12:12;;;;;;;1.50;1.40;;;;;;;20.10;61.02;97734.72;265082;1088;22895;-85
2021/08/06 14:17:18;;;;;;;2.27;1.60;;;;;;;20.32;61.30;97730.98;265396;1090;23056;-85
2021/08/06 14:22:22;;;;;;;1.70;1.30;;;;;;;20.60;60.34;97740.48;264852;1088;25983;-85
2021/08/06 14:27:25;;;;;;;1.65;1.55;;;;;;;20.98;60.74;97730.19;264857;1089;22637;-85
2021/08/06 14:32:28;;;;;;;1.60;1.50;;;;;;;21.33;59.43;97736.14;264602;1089;22794;-85
2021/08/06 14:37:34;;;;;;;2.05;1.30;;;;;;;21.42;58.97;97746.66;265075;1089;22776;-85
2021/08/06 14:42:37;;;;;;;1.30;1.20;;;;;;;21.31;57.72;97752.09;265026;1089;22707;-84
2021/08/06 14:47:44;;;;;;;5.98;5.08;;;;;;;21.36;58.70;97751.70;264580;1090;22948;-84
2021/08/06 14:52:48;;;;;;;1.93;1.83;;;;;;;21.44;58.07;97749.80;264779;1089;22847;-85
2021/08/06 14:57:52;;;;;;;1.55;1.45;;;;;;;21.35;58.54;97761.83;264924;1089;22927;-85
2021/08/06 15:02:55;;;;;;;1.88;1.38;;;;;;;21.28;57.59;97766.46;264671;1089;22856;-85
2021/08/06 15:08:00;;;;;;;1.50;1.40;;;;;;;21.23;57.86;97766.86;264651;1090;22830;-84
2021/08/06 15:13:17;;;;;;;3.18;1.63;;;;;;;21.11;57.62;97778.85;264715;1089;22892;-84
2021/08/06 15:18:34;;;;;;;1.60;1.50;;;;;;;20.92;57.92;97774.52;264610;1088;22812;-86
2021/08/06 15:23:38;;;;;;;2.28;1.60;;;;;;;20.95;57.99;97769.06;264204;1089;25980;-84
2021/08/06 15:28:42;;;;;;;1.38;1.28;;;;;;;21.01;58.41;97774.92;264945;1088;22776;-84
2021/08/06 15:33:45;;;;;;;1.30;1.20;;;;;;;21.00;58.20;97776.11;264677;1089;22916;-84
2021/08/06 15:38:48;;;;;;;1.60;1.30;;;;;;;20.85;57.81;97780.69;264882;1089;22848;-85
2021/08/06 15:43:52;;;;;;;1.03;1.03;;;;;;;20.65;58.22;97782.86;264732;1090;22944;-85
2021/08/06 15:48:57;;;;;;;2.07;1.40;;;;;;;20.60;59.48;97775.84;264921;1089;24300;-84
2021/08/06 15:54:00;;;;;;;1.60;1.50;;;;;;;20.43;58.79;97774.58;264638;1089;24319;-84
2021/08/06 15:59:06;;;;;;;1.03;1.03;;;;;;;20.40;60.17;97775.34;264807;1088;22881;-83
2021/08/06 16:04:09;;;;;;;1.50;1.40;;;;;;;20.46;60.49;97776.54;264727;1089;22836;-85
2021/08/06 16:09:12;;;;;;;2.28;1.23;;;;;;;20.53;61.07;97775.81;264821;1089;26452;-84
2021/08/06 16:14:16;;;;;;;3.10;2.13;;;;;;;20.56;62.11;97772.33;265092;1088;22856;-84
2021/08/06 16:19:19;;;;;;;3.65;1.25;;;;;;;20.57;61.53;97782.05;264630;1090;23121;-85
2021/08/06 16:24:23;;;;;;;1.40;1.30;;;;;;;20.59;62.12;97784.39;264851;1088;22747;-84
2021/08/06 16:29:32;;;;;;;1.40;1.30;;;;;;;20.58;62.24;97789.06;264762;1089;22775;-84
2021/08/06 16:34:35;;;;;;;1.83;1.40;;;;;;;20.48;62.46;97778.88;264569;1089;25793;-84
2021/08/06 16:39:39;;;;;;;2.80;1.33;;;;;;;20.44;63.12;97784.31;264899;1089;22699;-85
2021/08/06 16:44:43;;;;;;;2.60;1.40;;;;;;;20.38;63.22;97780.36;264371;1089;23378;-84
2021/08/06 16:49:46;;;;;;;1.57;1.40;;;;;;;20.33;63.65;97778.02;264609;1089;25803;-84
2021/08/06 16:54:49;;;;;;;3.43;1.43;;;;;;;20.23;63.88;97787.66;264617;1089;26264;-84
2021/08/06 16:59:53;;;;;;;1.60;1.50;;;;;;;20.25;64.34;97785.33;264589;1089;26442;-84
2021/08/06 17:04:56;;;;;;;3.98;1.63;;;;;;;20.26;63.76;97794.25;264810;1088;22862;-85
2021/08/06 17:10:00;;;;;;;2.67;1.90;;;;;;;20.20;64.37;97793.05;264476;1088;23740;-84
2021/08/06 17:15:06;;;;;;;7.10;5.50;;;;;;;20.12;65.22;97798.44;264539;1088;22835;-85
2021/08/06 17:20:11;;;;;;;1.85;1.75;;;;;;;20.06;65.72;97796.43;264953;1090;25903;-84
2021/08/06 17:25:20;;;;;;;3.33;1.97;;;;;;;20.08;65.64;97799.57;264566;1090;22782;-85
2021/08/06 17:30:27;;;;;;;;;;;;;;;20.12;65.91;97792.23;265063;1089;22921;-84
2021/08/06 17:35:43;;;;;;;2.60;1.80;;;;;;;20.01;65.77;97794.84;265718;1089;21463;-85
2021/08/06 17:40:46;;;;;;;1.70;1.60;;;;;;;19.88;65.43;97780.77;264421;1089;26002;-85
2021/08/06 17:45:50;;;;;;;3.20;1.83;;;;;;;19.67;65.56;97784.03;264156;1089;22758;-84
2021/08/06 17:50:54;;;;;;;1.70;1.40;;;;;;;19.49;66.89;97781.13;264555;1090;22834;-84
2021/08/06 17:55:59;;;;;;;2.25;1.80;;;;;;;19.29;67.53;97783.21;264845;1089;22862;-85
2021/08/06 18:01:03;;;;;;;3.05;1.70;;;;;;;19.22;69.18;97783.91;264584;1088;22795;-85
2021/08/06 18:06:08;;;;;;;11.95;10.65;;;;;;;19.13;69.19;97786.91;264745;1089;22886;-84
2021/08/06 18:11:11;;;;;;;2.47;1.83;;;;;;;19.10;70.35;97786.88;264251;1089;23632;-84
2021/08/06 18:16:15;;;;;;;1.70;1.60;;;;;;;19.03;70.35;97797.63;264371;1089;22778;-84
2021/08/06 18:21:24;;;;;;;;;;;;;;;18.66;68.48;97790.91;264343;1088;22876;-84
2021/08/06 18:26:27;;;;;;;3.95;2.35;;;;;;;18.41;70.41;97804.91;264508;1089;21579;-84
2021/08/06 18:31:30;;;;;;;2.73;2.43;;;;;;;18.38;71.38;97802.13;264485;1089;22925;-84
2021/08/06 18:36:34;;;;;;;3.70;2.80;;;;;;;18.32;71.53;97809.02;264330;1089;22855;-84
2021/08/06 18:41:41;;;;;;;3.67;2.53;;;;;;;18.03;71.69;97816.66;264442;1088;22779;-84
2021/08/06 18:46:44;;;;;;;4.17;3.27;;;;;;;17.93;72.96;97816.11;264647;1088;22886;-83
2021/08/06 18:52:07;;;;;;;4.85;4.05;;;;;;;17.87;73.46;97831.07;264332;1089;22866;-84
2021/08/06 18:57:11;;;;;;;8.43;5.50;;;;;;;17.83;73.60;97830.22;264515;1089;23528;-83
2021/08/06 19:02:17;;;;;;;11.07;9.33;;;;;;;17.59;73.40;97823.21;264744;1088;22802;-83
2021/08/06 19:07:22;;;;;;;26.55;19.95;;;;;;;17.60;74.79;97820.14;264805;1090;24501;-83
2021/08/06 19:12:27;;;;;;;16.70;11.50;;;;;;;17.64;75.48;97819.42;264593;1088;23427;-83
2021/08/06 19:17:34;;;;;;;16.75;12.85;;;;;;;17.65;76.00;97812.87;264416;1089;23292;-83
2021/08/06 19:22:38;;;;;;;17.55;12.40;;;;;;;17.63;75.62;97824.06;264756;1088;26334;-84
2021/08/06 19:27:55;;;;;;;14.65;11.75;;;;;;;17.57;76.22;97825.48;264867;1089;25745;-83
2021/08/06 19:33:22;;;;;;;15.25;9.90;;;;;;;17.51;76.79;97824.98;264375;1088;22831;-82
2021/08/06 19:38:25;;;;;;;13.40;10.00;;;;;;;17.47;77.10;97832.25;264449;1089;22879;-83
2021/08/06 19:43:43;;;;;;;12.30;8.25;;;;;;;17.41;77.29;97833.69;264172;1090;22798;-83
2021/08/06 19:48:46;;;;;;;6.35;4.65;;;;;;;17.06;76.19;97837.23;264554;1090;22903;-83
2021/08/06 19:53:51;;;;;;;8.50;6.70;;;;;;;16.61;76.13;97833.90;264643;1090;22783;-82
2021/08/06 19:58:54;;;;;;;10.53;7.47;;;;;;;16.34;76.79;97838.27;264593;1089;25638;-83
2021/08/06 20:03:59;;;;;;;13.93;8.60;;;;;;;16.11;77.15;97841.58;264942;1090;23382;-83
2021/08/06 20:09:04;;;;;;;11.47;8.07;;;;;;;15.90;77.68;97831.79;264748;1089;26025;-84
2021/08/06 20:14:22;;;;;;;11.87;8.43;;;;;;;15.73;78.03;97834.79;264275;1090;22827;-83
2021/08/06 20:19:32;;;;;;;9.90;7.85;;;;;;;15.65;78.27;97830.33;264314;1089;27242;-83
2021/08/06 20:24:36;;;;;;;12.60;8.65;;;;;;;15.54;78.31;97838.93;264224;1089;26382;-82
2021/08/06 20:29:39;;;;;;;9.17;7.37;;;;;;;15.43;78.39;97842.45;264219;1089;22785;-83
2021/08/06 20:34:44;;;;;;;13.10;8.80;;;;;;;15.30;78.65;97833.61;264579;1089;25793;-83
2021/08/06 20:39:55;;;;;;;13.05;9.35;;;;;;;15.21;78.78;97839.93;264666;1090;24048;-82
2021/08/06 20:44:58;;;;;;;12.15;9.13;;;;;;;15.13;79.16;97840.08;264487;1090;23053;-82
2021/08/06 20:50:03;;;;;;;13.05;9.30;;;;;;;15.01;79.18;97843.56;264591;1088;24183;-83
2021/08/06 20:55:07;;;;;;;12.87;9.50;;;;;;;14.89;79.30;97839.77;264178;1089;22859;-83
2021/08/06 21:00:11;;;;;;;49.25;33.40;;;;;;;14.90;80.38;97832.48;264926;1089;22918;-82
2021/08/06 21:05:14;;;;;;;16.95;11.10;;;;;;;15.00;81.35;97828.53;264790;1089;26030;-83
2021/08/06 21:10:18;;;;;;;13.50;9.40;;;;;;;14.96;80.58;97835.73;264681;1090;22775;-84
2021/08/06 21:15:23;;;;;;;14.20;8.73;;;;;;;14.83;80.15;97846.53;264523;1088;22945;-83
2021/08/06 21:20:27;;;;;;;13.53;10.03;;;;;;;14.71;80.38;97851.93;264774;1089;23930;-82
2021/08/06 21:25:32;;;;;;;13.15;9.95;;;;;;;14.66;81.10;97842.17;264239;1089;25806;-82
2021/08/06 21:30:35;;;;;;;11.75;9.55;;;;;;;14.74;81.81;97832.38;264265;1090;25983;-83
2021/08/06 21:35:39;;;;;;;13.50;9.55;;;;;;;14.68;80.93;97839.13;264746;1089;26274;-82
2021/08/06 21:40:47;;;;;;;14.17;9.50;;;;;;;14.60;81.43;97831.92;264342;1089;22881;-83
2021/08/06 21:45:52;;;;;;;11.70;8.45;;;;;;;14.55;81.49;97836.41;264583;1089;25793;-83
2021/08/06 21:50:56;;;;;;;11.90;8.50;;;;;;;14.49;80.96;97832.38;264269;1090;23272;-84
2021/08/06 21:55:59;;;;;;;12.60;8.37;;;;;;;14.42;80.94;97837.52;264384;1089;25757;-83
2021/08/06 22:01:03;;;;;;;10.60;8.25;;;;;;;14.52;82.27;97845.17;264150;1089;22863;-83
2021/08/06 22:06:06;;;;;;;11.43;7.77;;;;;;;14.66;82.94;97844.87;264390;1089;22766;-83
2021/08/06 22:11:10;;;;;;;10.87;7.77;;;;;;;14.73;81.74;97854.28;264778;1089;27058;-84
2021/08/06 22:16:15;;;;;;;11.47;7.30;;;;;;;14.61;81.15;97846.97;264688;1089;22849;-83
2021/08/06 22:21:18;;;;;;;10.60;8.25;;;;;;;14.60;81.29;97861.56;264615;1090;22780;-83
2021/08/06 22:26:21;;;;;;;13.80;7.60;;;;;;;14.58;81.21;97855.70;264151;1090;22944;-82
2021/08/06 22:31:32;;;;;;;13.03;7.73;;;;;;;14.52;81.20;97855.95;264352;1089;22796;-82
2021/08/06 22:36:36;;;;;;;11.00;8.05;;;;;;;14.45;81.16;97855.73;264392;1089;22793;-82
2021/08/06 22:41:40;;;;;;;12.83;8.27;;;;;;;14.35;81.19;97861.54;264523;1089;22802;-82
2021/08/06 22:46:56;;;;;;;11.93;7.93;;;;;;;14.32;81.53;97862.22;264556;1090;24354;-83
2021/08/06 22:52:22;;;;;;;12.60;8.00;;;;;;;14.25;81.50;97860.07;264343;1090;22794;-83
2021/08/06 22:57:25;;;;;;;10.20;8.20;;;;;;;14.17;81.56;97848.29;264363;1089;25944;-82
2021/08/06 23:02:31;;;;;;;11.25;8.10;;;;;;;14.08;81.70;97857.59;264330;1089;23635;-83
2021/08/06 23:07:35;;;;;;;12.97;8.67;;;;;;;13.96;81.73;97856.44;264572;1090;23572;-82
2021/08/06 23:12:39;;;;;;;11.85;8.60;;;;;;;13.89;82.25;97863.47;264592;1089;22937;-83
2021/08/06 23:17:43;;;;;;;12.20;9.70;;;;;;;13.80;82.21;97858.96;264018;1090;22811;-82
2021/08/06 23:22:47;;;;;;;10.35;8.60;;;;;;;13.71;82.26;97866.34;264513;1089;22767;-83
2021/08/06 23:27:51;;;;;;;11.13;8.67;;;;;;;13.64;82.67;97861.50;264766;1089;22790;-83
2021/08/06 23:32:56;;;;;;;11.25;8.60;;;;;;;13.55;82.63;97866.16;265620;1090;23162;-81
2021/08/06 23:38:10;;;;;;;12.95;9.15;;;;;;;13.47;82.97;97859.75;265502;1090;22724;-81
2021/08/06 23:43:13;;;;;;;11.70;8.90;;;;;;;13.43;83.03;97860.72;265274;1090;22887;-81
2021/08/06 23:48:17;;;;;;;10.25;8.00;;;;;;;13.37;83.18;97865.51;265673;1090;24081;-81
2021/08/06 23:53:23;;;;;;;12.15;9.90;;;;;;;13.33;83.55;97867.25;265631;1088;22795;-80
2021/08/06 23:58:27;;;;;;;12.70;9.60;;;;;;;13.31;83.73;97862.20;265389;1089;22767;-80
